Terminal Aerodrome Forecast
Issued by NWS

Home | Current Version | Previous Version | Text Only | Print | Product List | Glossary On
Versions: 1 2 3 4 5 6 7 8 9 10 11 12 13 14 15
000
FTUS46 KSGX 300520
TAFCRQ
TAF
KCRQ 300520Z 3006/3106 VRB04KT P6SM SKC
     FM301000 VRB04KT 2SM BR BKN004
     FM301600 VRB04KT 6SM BR SCT010
     FM301900 26008KT P6SM SKC
     FM310100 VRB04KT P6SM FEW009
     FM310300 VRB04KT P6SM OVC009=

USA.gov is the U.S. government's official web portal to all federal, state and local government web resources and services.